createdAt,value
2022-09-10T00:00:30.104Z,205
2022-09-10T00:05:30.106Z,225
2022-09-10T00:10:30.097Z,227.5
2022-09-10T00:15:30.130Z,230
2022-09-10T00:20:30.109Z,220
2022-09-10T00:25:30.119Z,220
2022-09-10T00:30:30.102Z,220
2022-09-10T00:35:30.113Z,217.5
2022-09-10T00:40:30.103Z,225
2022-09-10T00:45:30.169Z,220
2022-09-10T00:50:30.110Z,235
2022-09-10T00:55:30.109Z,232.5
2022-09-10T01:00:30.096Z,240
2022-09-10T01:05:30.119Z,265
2022-09-10T01:10:30.096Z,270
2022-09-10T01:15:30.113Z,245
2022-09-10T01:20:30.094Z,227.5
2022-09-10T01:25:30.115Z,230
2022-09-10T01:30:30.102Z,230
2022-09-10T01:35:30.110Z,225
2022-09-10T01:40:30.120Z,225
2022-09-10T01:45:30.147Z,225
2022-09-10T01:50:30.109Z,225
2022-09-10T01:55:30.107Z,230
2022-09-10T02:00:30.104Z,232.5
2022-09-10T02:05:30.106Z,247.5
2022-09-10T02:10:30.096Z,265
2022-09-10T02:15:30.112Z,247.5
2022-09-10T02:20:30.091Z,270
2022-09-10T02:25:30.116Z,255
2022-09-10T02:30:30.102Z,235
2022-09-10T02:35:30.351Z,245
2022-09-10T02:40:30.101Z,265
2022-09-10T02:45:30.162Z,250
2022-09-10T02:50:30.099Z,250
2022-09-10T02:55:30.115Z,265
2022-09-10T03:00:30.102Z,277.5
2022-09-10T03:05:30.139Z,270
2022-09-10T03:10:30.101Z,245
2022-09-10T03:15:30.103Z,225
2022-09-10T03:20:30.098Z,232.5
2022-09-10T03:25:30.110Z,222.5
2022-09-10T03:30:30.098Z,230
2022-09-10T03:35:30.102Z,230
2022-09-10T03:40:30.098Z,235
2022-09-10T03:45:30.147Z,235
2022-09-10T03:50:30.095Z,230
2022-09-10T03:55:30.121Z,225
2022-09-10T04:00:30.099Z,232.5
2022-09-10T04:05:31.114Z,235
2022-09-10T04:10:30.098Z,225
2022-09-10T04:15:30.106Z,232.5
2022-09-10T04:20:30.115Z,227.5
2022-09-10T04:25:30.101Z,237.5
2022-09-10T04:30:30.113Z,237.5
2022-09-10T04:35:30.114Z,250
2022-09-10T04:40:30.102Z,230
2022-09-10T04:45:30.116Z,240
2022-09-10T04:50:30.110Z,220
2022-09-10T04:55:30.101Z,232.5
2022-09-10T05:00:30.109Z,235
2022-09-10T05:05:30.110Z,245
2022-09-10T05:10:30.099Z,240
2022-09-10T05:15:30.104Z,222.5
2022-09-10T05:20:30.094Z,230
2022-09-10T05:25:30.102Z,227.5
2022-09-10T05:30:30.108Z,222.5
2022-09-10T05:35:30.110Z,222.5
2022-09-10T05:40:30.095Z,222.5
2022-09-10T05:45:30.173Z,235
2022-09-10T05:50:30.095Z,232.5
2022-09-10T05:55:30.102Z,232.5
2022-09-10T06:00:30.105Z,222.5
2022-09-10T06:05:30.099Z,222.5
2022-09-10T06:10:30.100Z,222.5
2022-09-10T06:15:30.107Z,225
2022-09-10T06:20:30.098Z,227.5
2022-09-10T06:25:30.105Z,242.5
2022-09-10T06:30:30.180Z,237.5
2022-09-10T06:35:30.102Z,242.5
2022-09-10T06:40:30.110Z,232.5
2022-09-10T06:45:30.118Z,230
2022-09-10T06:50:30.095Z,227.5
2022-09-10T06:55:30.095Z,232.5
2022-09-10T07:00:30.100Z,235
2022-09-10T07:05:30.102Z,220
2022-09-10T07:10:30.100Z,222.5
2022-09-10T07:15:30.207Z,222.5
2022-09-10T07:20:30.104Z,225
2022-09-10T07:25:30.117Z,230
2022-09-10T07:30:30.107Z,227.5
2022-09-10T07:35:30.111Z,230
2022-09-10T07:40:30.103Z,222.5
2022-09-10T07:45:30.154Z,215
2022-09-10T07:50:30.111Z,220
2022-09-10T07:55:30.107Z,215
2022-09-10T08:00:30.096Z,220
2022-09-10T08:05:30.094Z,222.5
2022-09-10T08:10:30.106Z,220
2022-09-10T08:15:30.105Z,220
2022-09-10T08:20:30.092Z,215
2022-09-10T08:25:30.111Z,212.5
2022-09-10T08:30:30.110Z,225
2022-09-10T08:35:30.103Z,242.5
2022-09-10T08:40:30.088Z,225
2022-09-10T08:45:30.207Z,220
2022-09-10T08:50:30.110Z,220
2022-09-10T08:55:30.111Z,220
2022-09-10T09:00:30.105Z,220
2022-09-10T09:05:30.098Z,225
2022-09-10T09:10:30.108Z,225
2022-09-10T09:15:30.143Z,220
2022-09-10T09:20:30.097Z,222.5
2022-09-10T09:25:30.119Z,230
2022-09-10T09:30:30.108Z,242.5
2022-09-10T09:35:30.112Z,230
2022-09-10T09:40:30.117Z,232.5
2022-09-10T09:45:30.131Z,240
2022-09-10T09:50:30.102Z,245
2022-09-10T09:55:30.102Z,262.5
2022-09-10T10:00:30.096Z,247.5
2022-09-10T10:05:30.119Z,245
2022-09-10T10:10:30.106Z,247.5
2022-09-10T10:15:30.151Z,265
2022-09-10T10:20:30.109Z,265
2022-09-10T10:25:30.116Z,252.5
2022-09-10T10:30:30.104Z,240
2022-09-10T10:35:30.116Z,265
2022-09-10T10:40:30.105Z,265
2022-09-10T10:45:30.112Z,257.5
2022-09-10T10:50:30.099Z,257.5
2022-09-10T10:55:30.134Z,282.5
2022-09-10T11:00:30.109Z,265
2022-09-10T11:05:30.103Z,262.5
2022-09-10T11:10:30.104Z,260
2022-09-10T11:15:30.115Z,255
2022-09-10T11:20:30.492Z,230
2022-09-10T11:25:30.111Z,240
2022-09-10T11:30:30.112Z,275
2022-09-10T11:35:30.112Z,257.5
2022-09-10T11:40:30.116Z,267.5
2022-09-10T11:45:30.105Z,272.5
2022-09-10T11:50:34.406Z,252.5
2022-09-10T11:55:30.112Z,267.5
2022-09-10T12:00:30.102Z,260
2022-09-10T12:05:30.113Z,250
2022-09-10T12:10:30.104Z,240
2022-09-10T12:15:30.112Z,230
2022-09-10T12:20:30.096Z,230
2022-09-10T12:25:33.785Z,257.5
2022-09-10T12:30:30.100Z,245
2022-09-10T12:35:30.108Z,252.5
2022-09-10T12:40:30.107Z,235
2022-09-10T12:45:30.107Z,260
2022-09-10T12:50:30.107Z,272.5
2022-09-10T12:55:30.107Z,252.5
2022-09-10T13:00:30.100Z,260
2022-09-10T13:05:30.105Z,252.5
2022-09-10T13:10:30.093Z,250
2022-09-10T13:15:30.213Z,297.5
2022-09-10T13:20:30.107Z,305
2022-09-10T13:25:30.113Z,260
2022-09-10T13:30:30.090Z,257.5
2022-09-10T13:35:30.097Z,247.5
2022-09-10T13:40:30.110Z,240
2022-09-10T13:45:30.109Z,252.5
2022-09-10T13:50:30.105Z,265
2022-09-10T13:55:30.107Z,247.5
2022-09-10T14:00:30.097Z,270
2022-09-10T14:05:30.099Z,270
2022-09-10T14:10:30.109Z,262.5
2022-09-10T14:15:30.202Z,260
2022-09-10T14:20:30.096Z,240
2022-09-10T14:25:30.112Z,242.5
2022-09-10T14:30:30.100Z,260
2022-09-10T14:35:30.102Z,250
2022-09-10T14:40:30.105Z,252.5
2022-09-10T14:45:30.100Z,252.5
2022-09-10T14:50:30.104Z,270
2022-09-10T14:55:30.097Z,282.5
2022-09-10T15:00:30.097Z,282.5
2022-09-10T15:05:30.104Z,270
2022-09-10T15:10:30.100Z,270
2022-09-10T15:15:30.105Z,262.5
2022-09-10T15:20:30.104Z,257.5
2022-09-10T15:25:30.105Z,265
2022-09-10T15:30:30.094Z,257.5
2022-09-10T15:35:30.104Z,270
2022-09-10T15:40:30.099Z,260
2022-09-10T15:45:30.092Z,285
2022-09-10T15:50:30.097Z,252.5
2022-09-10T15:55:30.116Z,262.5
2022-09-10T16:00:30.100Z,267.5
2022-09-10T16:05:30.107Z,260
2022-09-10T16:10:30.094Z,260
2022-09-10T16:15:30.110Z,250
2022-09-10T16:20:30.095Z,260
2022-09-10T16:25:30.106Z,272.5
2022-09-10T16:30:30.100Z,265
2022-09-10T16:35:30.111Z,255
2022-09-10T16:40:30.101Z,267.5
2022-09-10T16:45:30.111Z,272.5
2022-09-10T16:50:30.110Z,262.5
2022-09-10T16:55:30.116Z,272.5
2022-09-10T17:00:30.099Z,255
2022-09-10T17:05:30.113Z,260
2022-09-10T17:10:30.106Z,275
2022-09-10T17:15:30.120Z,265
2022-09-10T17:20:30.121Z,235
2022-09-10T17:25:30.106Z,310
2022-09-10T17:30:30.113Z,307.5
2022-09-10T17:35:30.105Z,310
2022-09-10T17:40:30.107Z,310
2022-09-10T17:45:30.113Z,307.5
2022-09-10T17:50:30.099Z,302.5
2022-09-10T17:55:33.517Z,297.5
2022-09-10T18:00:30.108Z,285
2022-09-10T18:05:30.118Z,285
2022-09-10T18:10:30.118Z,272.5
2022-09-10T18:15:30.114Z,277.5
2022-09-10T18:20:30.115Z,285
2022-09-10T18:25:30.118Z,267.5
2022-09-10T18:30:30.097Z,272.5
2022-09-10T18:35:30.108Z,265
2022-09-10T18:40:30.115Z,275
2022-09-10T18:45:30.107Z,267.5
2022-09-10T18:50:30.108Z,252.5
2022-09-10T18:55:30.109Z,265
2022-09-10T19:00:30.102Z,245
2022-09-10T19:05:30.112Z,247.5
2022-09-10T19:10:30.110Z,245
2022-09-10T19:15:30.101Z,260
2022-09-10T19:20:30.105Z,257.5
2022-09-10T19:25:30.108Z,225
2022-09-10T19:30:33.831Z,225
2022-09-10T19:35:30.105Z,227.5
2022-09-10T19:40:30.093Z,195
2022-09-10T19:45:30.104Z,270
2022-09-10T19:50:30.100Z,317.5
2022-09-10T19:55:30.111Z,292.5
2022-09-10T20:00:46.179Z,292.5
2022-09-10T20:05:30.109Z,227.5
2022-09-10T20:10:30.104Z,227.5
2022-09-10T20:15:30.108Z,225
2022-09-10T20:20:30.106Z,230
2022-09-10T20:25:30.120Z,235
2022-09-10T20:30:30.173Z,235
2022-09-10T20:35:30.110Z,232.5
2022-09-10T20:40:30.114Z,227.5
2022-09-10T20:45:30.112Z,230
2022-09-10T20:50:30.107Z,227.5
2022-09-10T20:55:30.109Z,230
2022-09-10T21:00:30.109Z,247.5
2022-09-10T21:05:30.123Z,230
2022-09-10T21:10:30.100Z,227.5
2022-09-10T21:15:30.129Z,227.5
2022-09-10T21:20:30.104Z,232.5
2022-09-10T21:25:30.105Z,232.5
2022-09-10T21:30:30.144Z,232.5
2022-09-10T21:35:30.113Z,237.5
2022-09-10T21:40:30.113Z,242.5
2022-09-10T21:45:30.108Z,232.5
2022-09-10T21:50:30.095Z,245
2022-09-10T21:55:30.110Z,247.5
2022-09-10T22:00:30.102Z,245
2022-09-10T22:05:30.115Z,272.5
2022-09-10T22:10:30.114Z,265
2022-09-10T22:15:30.127Z,280
2022-09-10T22:20:30.102Z,265
2022-09-10T22:25:30.115Z,267.5
2022-09-10T22:30:30.100Z,257.5
2022-09-10T22:35:30.108Z,240
2022-09-10T22:40:30.101Z,240
2022-09-10T22:45:30.113Z,227.5
2022-09-10T22:50:30.104Z,240
2022-09-10T22:55:30.105Z,235
2022-09-10T23:00:30.100Z,240
2022-09-10T23:05:30.110Z,242.5
2022-09-10T23:10:30.104Z,230
2022-09-10T23:15:30.105Z,260
2022-09-10T23:20:30.103Z,260
2022-09-10T23:25:30.104Z,267.5
2022-09-10T23:30:30.229Z,270
2022-09-10T23:35:30.115Z,287.5
2022-09-10T23:40:34.048Z,257.5
2022-09-10T23:45:30.113Z,245
2022-09-10T23:50:30.102Z,265
2022-09-10T23:55:30.353Z,270
